createdAt,value
2023-04-18T00:02:03.171Z,16.46
2023-04-18T00:04:31.321Z,16.44
2023-04-18T00:06:59.703Z,16.31
2023-04-18T00:09:27.703Z,16.21
2023-04-18T00:11:56.064Z,16.65
2023-04-18T00:14:24.021Z,16.61
2023-04-18T00:16:54.351Z,16.57
2023-04-18T00:19:22.554Z,16.30
2023-04-18T00:21:53.397Z,16.25
2023-04-18T00:24:21.321Z,16.39
2023-04-18T00:26:49.633Z,16.33
2023-04-18T00:29:17.493Z,16.28
2023-04-18T00:31:45.795Z,16.26
2023-04-18T00:34:14.009Z,16.16
2023-04-18T00:36:42.843Z,16.33
2023-04-18T00:39:10.963Z,16.14
2023-04-18T00:41:39.247Z,16.18
2023-04-18T00:44:07.160Z,16.38
2023-04-18T00:46:35.613Z,16.29
2023-04-18T00:49:03.798Z,16.44
2023-04-18T00:51:32.785Z,16.45
2023-04-18T00:54:00.889Z,16.25
2023-04-18T00:56:29.685Z,16.47
2023-04-18T00:58:59.513Z,16.38
2023-04-18T01:01:27.909Z,16.33
2023-04-18T01:03:56.091Z,16.48
2023-04-18T01:06:24.775Z,16.44
2023-04-18T01:08:54.213Z,16.40
2023-04-18T01:11:22.653Z,16.55
2023-04-18T01:14:01.410Z,16.37
2023-04-18T01:16:30.103Z,16.21
2023-04-18T01:18:58.023Z,16.18
2023-04-18T01:21:27.067Z,16.45
2023-04-18T01:23:54.995Z,16.44
2023-04-18T01:26:23.508Z,16.55
2023-04-18T01:28:51.544Z,16.63
2023-04-18T01:31:20.360Z,16.43
2023-04-18T01:33:48.275Z,16.62
2023-04-18T01:36:17.526Z,16.62
2023-04-18T01:38:45.398Z,16.54
2023-04-18T01:41:13.714Z,16.56
2023-04-18T01:43:43.524Z,16.50
2023-04-18T01:46:12.283Z,16.45
2023-04-18T01:48:40.218Z,16.48
2023-04-18T01:51:08.864Z,16.28
2023-04-18T01:53:39.315Z,16.30
2023-04-18T01:56:07.693Z,16.18
2023-04-18T01:58:36.263Z,16.19
2023-04-18T02:01:04.819Z,16.45
2023-04-18T02:03:33.075Z,16.17
2023-04-18T02:06:02.162Z,16.03
2023-04-18T02:08:31.142Z,16.12
2023-04-18T02:10:59.563Z,15.95
2023-04-18T02:13:27.577Z,15.79
2023-04-18T02:15:55.808Z,15.72
2023-04-18T02:18:25.436Z,15.88
2023-04-18T02:20:53.826Z,16.03
2023-04-18T02:23:23.153Z,15.81
2023-04-18T02:25:51.768Z,15.99
2023-04-18T02:28:19.670Z,16.07
2023-04-18T02:30:47.905Z,16.03
2023-04-18T02:33:15.774Z,16.21
2023-04-18T02:35:44.115Z,16.06
2023-04-18T02:38:12.054Z,16.22
2023-04-18T02:40:40.318Z,16.06
2023-04-18T02:43:08.526Z,16.09
2023-04-18T02:45:37.011Z,16.25
2023-04-18T02:48:05.616Z,16.21
2023-04-18T02:50:35.973Z,16.16
2023-04-18T02:53:03.977Z,16.25
2023-04-18T02:55:44.745Z,16.34
2023-04-18T02:58:12.905Z,16.27
2023-04-18T03:01:00.211Z,16.47
2023-04-18T03:03:48.382Z,16.42
2023-04-18T03:06:34.976Z,16.42
2023-04-18T03:09:04.054Z,16.24
2023-04-18T03:11:35.743Z,16.29
2023-04-18T03:14:04.340Z,16.27
2023-04-18T03:16:42.205Z,16.32
2023-04-18T03:19:13.797Z,16.37
2023-04-18T03:21:42.155Z,16.46
2023-04-18T03:24:12.319Z,16.51
2023-04-18T03:26:43.252Z,16.46
2023-04-18T03:29:11.677Z,16.55
2023-04-18T03:31:42.251Z,16.52
2023-04-18T03:34:10.352Z,16.44
2023-04-18T03:36:38.773Z,16.60
2023-04-18T03:39:07.115Z,16.44
2023-04-18T03:41:36.584Z,16.48
2023-04-18T03:44:04.972Z,16.52
2023-04-18T03:46:36.847Z,16.34
2023-04-18T03:49:05.850Z,16.55
2023-04-18T03:51:41.749Z,16.48
2023-04-18T03:54:09.671Z,16.48
2023-04-18T03:56:38.581Z,16.41
2023-04-18T03:59:06.587Z,16.48
2023-04-18T04:01:35.026Z,16.45
2023-04-18T04:04:04.291Z,16.29
2023-04-18T04:06:33.134Z,16.50
2023-04-18T04:09:02.275Z,16.57
2023-04-18T04:11:30.874Z,16.68
2023-04-18T04:13:59.141Z,16.80
2023-04-18T04:16:33.901Z,16.71
2023-04-18T04:19:02.608Z,16.83
2023-04-18T04:21:37.887Z,16.86
2023-04-18T04:24:07.979Z,16.64
2023-04-18T04:26:43.489Z,16.72
2023-04-18T04:29:19.509Z,16.66
2023-04-18T04:31:49.957Z,16.54
2023-04-18T04:34:27.484Z,16.43
2023-04-18T04:36:56.190Z,16.43
2023-04-18T04:39:26.071Z,16.29
2023-04-18T04:42:20.444Z,16.31
2023-04-18T04:44:56.810Z,16.24
2023-04-18T04:47:26.318Z,16.29
2023-04-18T04:49:55.295Z,16.23
2023-04-18T04:52:23.982Z,16.29
2023-04-18T04:54:52.031Z,16.35
2023-04-18T04:57:22.350Z,16.25
2023-04-18T04:59:50.362Z,16.39
2023-04-18T05:02:18.825Z,16.18
2023-04-18T05:04:46.955Z,16.43
2023-04-18T05:07:15.962Z,16.31
2023-04-18T05:09:43.851Z,16.37
2023-04-18T05:12:12.092Z,16.26
2023-04-18T05:14:39.944Z,16.79
2023-04-18T05:17:08.626Z,16.83
2023-04-18T05:19:36.624Z,16.82
2023-04-18T05:22:04.951Z,16.73
2023-04-18T05:24:32.985Z,16.89
2023-04-18T05:27:01.877Z,16.88
2023-04-18T05:29:29.829Z,16.83
2023-04-18T05:31:58.092Z,16.96
2023-04-18T05:34:26.027Z,17.12
2023-04-18T05:36:54.293Z,17.26
2023-04-18T05:39:22.253Z,17.28
2023-04-18T05:41:50.465Z,17.24
2023-04-18T05:44:18.745Z,17.39
2023-04-18T05:46:51.471Z,17.59
2023-04-18T05:49:19.593Z,17.52
2023-04-18T05:51:50.016Z,17.84
2023-04-18T05:54:18.011Z,17.79
2023-04-18T05:56:46.272Z,18.00
2023-04-18T05:59:14.568Z,18.03
2023-04-18T06:01:43.812Z,18.06
2023-04-18T06:04:12.008Z,17.91
2023-04-18T06:06:40.816Z,18.14
2023-04-18T06:09:09.099Z,18.24
2023-04-18T06:11:37.448Z,18.26
2023-04-18T06:14:05.395Z,18.55
2023-04-18T06:16:33.829Z,18.56
2023-04-18T06:19:03.321Z,18.87
2023-04-18T06:21:31.758Z,19.28
2023-04-18T06:24:01.566Z,19.41
2023-04-18T06:26:32.259Z,19.59
2023-04-18T06:29:00.184Z,19.99
2023-04-18T06:31:28.803Z,19.66
2023-04-18T06:33:56.789Z,20.35
2023-04-18T06:36:25.254Z,20.44
2023-04-18T06:38:53.218Z,20.69
2023-04-18T06:41:21.560Z,20.96
2023-04-18T06:44:02.101Z,20.88
2023-04-18T06:46:32.396Z,20.78
2023-04-18T06:49:00.682Z,20.74
2023-04-18T06:51:29.296Z,20.60
2023-04-18T06:53:57.258Z,21.13
2023-04-18T06:56:25.560Z,21.25
2023-04-18T06:58:53.518Z,21.72
2023-04-18T07:01:21.870Z,21.99
2023-04-18T07:03:49.978Z,22.17
2023-04-18T07:06:18.924Z,22.25
2023-04-18T07:08:46.968Z,21.76
2023-04-18T07:11:15.853Z,22.17
2023-04-18T07:13:43.782Z,22.28
2023-04-18T07:16:12.135Z,22.30
2023-04-18T07:18:40.054Z,22.44
2023-04-18T07:21:08.335Z,22.34
2023-04-18T07:23:36.344Z,22.70
2023-04-18T07:26:05.923Z,22.92
2023-04-18T07:28:33.852Z,22.88
2023-04-18T07:31:03.592Z,22.20
2023-04-18T07:33:34.046Z,22.74
2023-04-18T07:36:03.474Z,23.29
2023-04-18T07:38:31.523Z,23.61
2023-04-18T07:41:00.262Z,22.66
2023-04-18T07:43:28.328Z,22.79
2023-04-18T07:45:56.691Z,22.62
2023-04-18T07:48:25.857Z,22.81
2023-04-18T07:50:54.474Z,22.67
2023-04-18T07:53:22.425Z,22.89
2023-04-18T07:55:50.944Z,22.28
2023-04-18T07:58:18.876Z,22.95
2023-04-18T08:00:47.616Z,22.74
2023-04-18T08:03:16.397Z,23.07
2023-04-18T08:05:44.750Z,22.35
2023-04-18T08:08:12.991Z,22.12
2023-04-18T08:10:41.373Z,21.91
2023-04-18T08:13:09.745Z,21.81
2023-04-18T08:15:38.096Z,21.63
2023-04-18T08:18:06.183Z,22.00
2023-04-18T08:20:36.557Z,21.70
2023-04-18T08:23:07.901Z,21.88
2023-04-18T08:25:37.967Z,22.12
2023-04-18T08:28:05.839Z,21.65
2023-04-18T08:30:34.335Z,21.94
2023-04-18T08:33:02.740Z,22.40
2023-04-18T08:35:31.548Z,22.50
2023-04-18T08:37:59.715Z,22.93
2023-04-18T08:40:30.424Z,22.33
2023-04-18T08:42:59.657Z,22.63
2023-04-18T08:45:29.273Z,22.63
2023-04-18T08:47:59.135Z,22.22
2023-04-18T08:50:28.015Z,23.09
2023-04-18T08:52:56.331Z,23.62
2023-04-18T08:55:24.677Z,23.13
2023-04-18T08:57:54.813Z,22.63
2023-04-18T09:00:23.886Z,23.21
2023-04-18T09:02:57.368Z,23.49
2023-04-18T09:05:27.747Z,22.98
2023-04-18T09:07:56.600Z,22.67
2023-04-18T09:10:26.815Z,23.48
2023-04-18T09:12:55.572Z,22.59
2023-04-18T09:15:27.133Z,22.67
2023-04-18T09:17:56.593Z,22.67
2023-04-18T09:20:41.436Z,22.63
2023-04-18T09:23:16.366Z,23.26
2023-04-18T09:25:48.385Z,22.81
2023-04-18T09:28:24.170Z,22.76
2023-04-18T09:30:53.246Z,23.07
2023-04-18T09:33:34.260Z,23.51
2023-04-18T09:36:37.787Z,23.41
2023-04-18T09:39:05.661Z,23.65
2023-04-18T09:41:33.917Z,23.21
2023-04-18T09:44:17.727Z,23.76
2023-04-18T09:46:47.548Z,25.40
2023-04-18T09:49:17.119Z,24.88
2023-04-18T09:51:46.483Z,23.47
2023-04-18T09:54:18.502Z,23.78
2023-04-18T09:56:47.836Z,24.26
2023-04-18T09:59:21.137Z,23.80
2023-04-18T10:01:49.937Z,24.01
2023-04-18T10:04:18.549Z,24.44
2023-04-18T10:06:47.560Z,23.29
2023-04-18T10:09:16.683Z,23.56
2023-04-18T10:11:45.161Z,23.62
2023-04-18T10:14:14.219Z,23.32
2023-04-18T10:16:45.751Z,23.26
2023-04-18T10:19:20.126Z,24.01
2023-04-18T10:21:52.063Z,24.45
2023-04-18T10:24:38.573Z,23.88
2023-04-18T10:27:07.254Z,23.86
2023-04-18T10:29:49.113Z,24.02
2023-04-18T10:32:19.115Z,24.00
2023-04-18T10:34:47.745Z,25.01
2023-04-18T10:37:17.853Z,25.04
2023-04-18T10:39:57.415Z,24.72
2023-04-18T10:42:44.988Z,24.43
2023-04-18T10:45:19.293Z,25.24
2023-04-18T10:47:47.598Z,25.86
2023-04-18T10:50:16.070Z,25.50
2023-04-18T10:52:44.614Z,25.14
2023-04-18T10:55:20.956Z,25.82
2023-04-18T10:57:51.706Z,26.56
2023-04-18T11:00:21.847Z,26.07
2023-04-18T11:02:56.297Z,26.31
2023-04-18T11:05:26.805Z,26.52
2023-04-18T11:07:55.516Z,26.83
2023-04-18T11:10:25.636Z,26.80
2023-04-18T11:12:56.702Z,25.58
2023-04-18T11:15:25.667Z,27.48
2023-04-18T11:18:04.247Z,27.92
2023-04-18T11:20:47.120Z,27.90
2023-04-18T11:23:16.528Z,27.69
2023-04-18T11:25:45.187Z,27.94
2023-04-18T11:28:13.912Z,27.59
2023-04-18T11:30:41.951Z,27.17
2023-04-18T11:33:11.851Z,26.30
2023-04-18T11:35:44.030Z,25.92
2023-04-18T11:38:13.791Z,25.57
2023-04-18T11:40:48.549Z,25.62
2023-04-18T11:43:24.256Z,26.44
2023-04-18T11:45:59.551Z,27.62
2023-04-18T11:48:37.197Z,27.51
2023-04-18T11:51:08.458Z,27.61
2023-04-18T11:53:37.952Z,27.51
2023-04-18T11:56:06.133Z,27.83
2023-04-18T11:58:34.887Z,27.71
2023-04-18T12:01:22.305Z,28.57
2023-04-18T12:04:20.587Z,29.32
2023-04-18T12:06:49.821Z,29.72
2023-04-18T12:09:18.748Z,28.69
2023-04-18T12:12:06.981Z,29.74
2023-04-18T12:14:36.019Z,30.19
2023-04-18T12:17:04.256Z,30.02
2023-04-18T12:19:33.159Z,29.48
2023-04-18T12:22:03.340Z,29.83
2023-04-18T12:24:32.494Z,29.33
2023-04-18T12:27:00.606Z,29.38
2023-04-18T12:29:29.305Z,28.82
2023-04-18T12:31:57.236Z,29.30
2023-04-18T12:34:26.068Z,30.00
2023-04-18T12:36:54.303Z,30.21
2023-04-18T12:39:22.687Z,30.47
2023-04-18T12:41:50.664Z,28.87
2023-04-18T12:44:19.330Z,28.01
2023-04-18T12:46:47.328Z,29.16
2023-04-18T12:49:16.065Z,29.02
2023-04-18T12:51:43.995Z,28.64
2023-04-18T12:54:12.612Z,28.72
2023-04-18T12:56:40.896Z,28.64
2023-04-18T12:59:09.724Z,29.26
2023-04-18T13:01:37.788Z,29.35
2023-04-18T13:04:12.270Z,30.07
2023-04-18T13:06:42.026Z,27.89
2023-04-18T13:09:11.091Z,27.85
2023-04-18T13:11:39.018Z,28.36
2023-04-18T13:14:07.875Z,28.68
2023-04-18T13:16:36.086Z,28.82
2023-04-18T13:19:04.448Z,29.92
2023-04-18T13:21:32.339Z,30.45
2023-04-18T13:24:01.480Z,30.09
2023-04-18T13:26:29.416Z,28.18
2023-04-18T13:28:57.429Z,29.32
2023-04-18T13:31:25.301Z,28.43
2023-04-18T13:33:53.382Z,29.68
2023-04-18T13:36:21.399Z,29.41
2023-04-18T13:38:50.586Z,29.31
2023-04-18T13:41:18.286Z,29.06
2023-04-18T13:43:46.541Z,28.24
2023-04-18T13:46:14.777Z,26.70
2023-04-18T13:48:42.854Z,27.58
2023-04-18T13:51:10.679Z,27.06
2023-04-18T13:53:38.801Z,26.92
2023-04-18T13:56:06.658Z,26.48
2023-04-18T13:58:34.682Z,26.80
2023-04-18T14:01:02.552Z,26.70
2023-04-18T14:03:31.130Z,26.55
2023-04-18T14:05:59.577Z,26.82
2023-04-18T14:08:27.737Z,26.73
2023-04-18T14:10:55.542Z,26.44
2023-04-18T14:13:23.886Z,26.73
2023-04-18T14:15:52.757Z,26.35
2023-04-18T14:18:22.012Z,25.48
2023-04-18T14:20:49.743Z,25.50
2023-04-18T14:23:17.799Z,26.21
2023-04-18T14:25:45.462Z,26.59
2023-04-18T14:28:13.687Z,27.00
2023-04-18T14:30:41.486Z,26.95
2023-04-18T14:33:11.680Z,27.45
2023-04-18T14:35:39.377Z,28.04
2023-04-18T14:38:07.455Z,28.02
2023-04-18T14:40:35.160Z,27.16
2023-04-18T14:43:03.379Z,27.56
2023-04-18T14:45:34.564Z,27.68
2023-04-18T14:48:02.668Z,27.36
2023-04-18T14:50:31.224Z,27.48
2023-04-18T14:52:59.264Z,27.82
2023-04-18T14:55:27.026Z,27.00
2023-04-18T14:57:55.019Z,28.44
2023-04-18T15:00:22.672Z,26.74
2023-04-18T15:02:51.074Z,28.02
2023-04-18T15:05:19.897Z,27.26
2023-04-18T15:07:48.090Z,27.90
2023-04-18T15:10:16.182Z,28.38
2023-04-18T15:12:44.493Z,27.65
2023-04-18T15:15:12.211Z,28.49
2023-04-18T15:17:40.462Z,27.38
2023-04-18T15:20:08.503Z,27.55
2023-04-18T15:22:37.255Z,27.41
2023-04-18T15:25:05.651Z,27.42
2023-04-18T15:27:33.990Z,27.73
2023-04-18T15:30:02.850Z,28.81
2023-04-18T15:32:31.574Z,28.64
2023-04-18T15:34:59.499Z,28.04
2023-04-18T15:37:28.048Z,28.34
2023-04-18T15:39:57.412Z,27.68
2023-04-18T15:42:25.634Z,28.61
2023-04-18T15:44:53.396Z,28.08
2023-04-18T15:47:21.696Z,28.12
2023-04-18T15:49:49.502Z,27.23
2023-04-18T15:52:17.627Z,26.15
2023-04-18T15:54:45.441Z,26.60
2023-04-18T15:57:13.797Z,27.15
2023-04-18T15:59:41.506Z,27.66
2023-04-18T16:02:09.791Z,26.58
2023-04-18T16:04:37.540Z,27.39
2023-04-18T16:07:06.671Z,26.74
2023-04-18T16:09:34.430Z,26.44
2023-04-18T16:12:03.670Z,26.16
2023-04-18T16:14:31.794Z,25.92
2023-04-18T16:16:59.944Z,25.64
2023-04-18T16:19:27.609Z,25.51
2023-04-18T16:21:55.610Z,25.16
2023-04-18T16:24:25.733Z,25.00
2023-04-18T16:26:55.954Z,24.71
2023-04-18T16:29:24.016Z,24.98
2023-04-18T16:31:52.217Z,24.81
2023-04-18T16:34:20.369Z,25.10
2023-04-18T16:36:50.773Z,24.91
2023-04-18T16:39:19.493Z,25.47
2023-04-18T16:41:47.557Z,24.42
2023-04-18T16:44:15.532Z,24.16
2023-04-18T16:46:43.857Z,24.38
2023-04-18T16:49:11.762Z,24.48
2023-04-18T16:51:39.908Z,24.05
2023-04-18T16:54:08.908Z,24.34
2023-04-18T16:56:37.067Z,24.39
2023-04-18T16:59:04.897Z,24.40
2023-04-18T17:01:34.396Z,24.24
2023-04-18T17:04:02.410Z,24.48
2023-04-18T17:06:31.553Z,24.56
2023-04-18T17:08:59.494Z,24.59
2023-04-18T17:11:28.095Z,24.45
2023-04-18T17:13:56.780Z,24.59
2023-04-18T17:16:24.914Z,24.04
2023-04-18T17:18:52.635Z,23.84
2023-04-18T17:21:20.656Z,23.64
2023-04-18T17:23:50.257Z,23.62
2023-04-18T17:26:18.374Z,23.77
2023-04-18T17:28:46.104Z,23.21
2023-04-18T17:31:15.422Z,23.58
2023-04-18T17:33:43.338Z,23.58
2023-04-18T17:36:11.793Z,23.49
2023-04-18T17:38:40.893Z,22.98
2023-04-18T17:41:09.082Z,22.98
2023-04-18T17:43:37.060Z,23.02
2023-04-18T17:46:05.284Z,22.86
2023-04-18T17:48:32.998Z,22.78
2023-04-18T17:51:02.254Z,23.01
2023-04-18T17:53:32.173Z,22.96
2023-04-18T17:56:00.691Z,22.92
2023-04-18T17:58:28.613Z,23.01
2023-04-18T18:00:57.008Z,22.91
2023-04-18T18:03:24.965Z,23.09
2023-04-18T18:05:55.170Z,23.37
2023-04-18T18:08:23.088Z,23.35
2023-04-18T18:10:51.351Z,23.22
2023-04-18T18:13:19.016Z,23.02
2023-04-18T18:15:47.245Z,22.91
2023-04-18T18:18:29.946Z,22.80
2023-04-18T18:20:58.463Z,22.57
2023-04-18T18:23:26.179Z,22.53
2023-04-18T18:25:54.180Z,22.39
2023-04-18T18:28:22.061Z,22.35
2023-04-18T18:30:50.160Z,22.16
2023-04-18T18:33:17.996Z,21.96
2023-04-18T18:35:46.068Z,21.85
2023-04-18T18:38:14.180Z,22.06
2023-04-18T18:40:42.296Z,21.89
2023-04-18T18:43:10.151Z,21.90
2023-04-18T18:45:38.596Z,21.58
2023-04-18T18:48:07.565Z,21.41
2023-04-18T18:50:35.952Z,21.44
2023-04-18T18:53:03.844Z,21.72
2023-04-18T18:55:32.231Z,21.60
2023-04-18T18:57:59.977Z,22.00
2023-04-18T19:00:28.193Z,21.57
2023-04-18T19:02:56.182Z,21.62
2023-04-18T19:05:24.595Z,21.52
2023-04-18T19:07:52.431Z,21.62
2023-04-18T19:10:21.500Z,21.77
2023-04-18T19:12:49.194Z,21.50
2023-04-18T19:15:18.826Z,21.64
2023-04-18T19:17:46.567Z,21.52
2023-04-18T19:20:14.899Z,21.46
2023-04-18T19:22:42.597Z,21.41
2023-04-18T19:25:10.712Z,21.63
2023-04-18T19:27:38.427Z,21.47
2023-04-18T19:30:07.001Z,21.62
2023-04-18T19:32:34.856Z,21.77
2023-04-18T19:35:03.155Z,21.80
2023-04-18T19:37:31.127Z,21.79
2023-04-18T19:39:59.216Z,21.89
2023-04-18T19:42:27.404Z,21.94
2023-04-18T19:44:56.601Z,21.94
2023-04-18T19:47:24.421Z,22.03
2023-04-18T19:49:52.549Z,21.80
2023-04-18T19:52:20.537Z,21.78
2023-04-18T19:54:48.847Z,21.93
2023-04-18T19:57:16.568Z,22.07
2023-04-18T19:59:44.687Z,21.92
2023-04-18T20:02:12.434Z,22.02
2023-04-18T20:04:42.266Z,21.71
2023-04-18T20:07:10.065Z,21.83
2023-04-18T20:09:38.242Z,21.92
2023-04-18T20:12:06.533Z,21.78
2023-04-18T20:14:35.007Z,21.67
2023-04-18T20:17:02.704Z,21.71
2023-04-18T20:19:30.968Z,21.61
2023-04-18T20:21:58.818Z,21.58
2023-04-18T20:24:28.396Z,21.45
2023-04-18T20:26:57.906Z,21.57
2023-04-18T20:29:27.276Z,21.55
2023-04-18T20:31:54.955Z,21.35
2023-04-18T20:34:23.244Z,21.45
2023-04-18T20:36:52.616Z,21.48
2023-04-18T20:39:20.735Z,21.42
2023-04-18T20:41:51.602Z,21.48
2023-04-18T20:44:21.128Z,21.40
2023-04-18T20:46:48.882Z,21.43
2023-04-18T20:49:17.477Z,21.48
2023-04-18T20:51:45.550Z,21.42
2023-04-18T20:54:13.840Z,21.45
2023-04-18T20:56:41.814Z,21.19
2023-04-18T20:59:09.919Z,21.09
2023-04-18T21:01:37.666Z,21.03
2023-04-18T21:04:05.986Z,20.99
2023-04-18T21:06:33.845Z,21.04
2023-04-18T21:09:01.965Z,21.08
2023-04-18T21:11:29.715Z,20.89
2023-04-18T21:13:57.779Z,20.95
2023-04-18T21:16:26.009Z,20.99
2023-04-18T21:18:55.473Z,21.02
2023-04-18T21:21:23.205Z,20.79
2023-04-18T21:23:51.321Z,20.77
2023-04-18T21:26:19.133Z,20.99
2023-04-18T21:28:57.713Z,20.76
2023-04-18T21:31:26.103Z,20.79
2023-04-18T21:33:55.433Z,20.85
2023-04-18T21:36:24.384Z,20.88
2023-04-18T21:38:52.936Z,20.99
2023-04-18T21:41:20.980Z,21.05
2023-04-18T21:43:49.828Z,20.98
2023-04-18T21:46:18.186Z,20.87
2023-04-18T21:48:47.612Z,20.89
2023-04-18T21:51:16.333Z,20.82
2023-04-18T21:53:44.695Z,20.77
2023-04-18T21:56:12.636Z,20.88
2023-04-18T21:58:40.717Z,20.78
2023-04-18T22:01:08.575Z,20.87
2023-04-18T22:03:37.324Z,20.80
2023-04-18T22:06:05.379Z,20.78
2023-04-18T22:08:34.073Z,20.85
2023-04-18T22:11:01.876Z,20.80
2023-04-18T22:13:30.358Z,20.72
2023-04-18T22:15:58.475Z,21.08
2023-04-18T22:18:30.558Z,20.74
2023-04-18T22:20:58.287Z,20.66
2023-04-18T22:23:27.287Z,20.71
2023-04-18T22:25:55.139Z,20.67
2023-04-18T22:28:24.115Z,20.74
2023-04-18T22:30:51.879Z,20.61
2023-04-18T22:33:20.204Z,20.52
2023-04-18T22:35:48.836Z,20.48
2023-04-18T22:38:16.984Z,20.38
2023-04-18T22:40:44.911Z,20.25
2023-04-18T22:43:13.292Z,20.23
2023-04-18T22:45:41.310Z,20.12
2023-04-18T22:48:12.625Z,20.46
2023-04-18T22:50:43.099Z,20.20
2023-04-18T22:53:11.349Z,20.21
2023-04-18T22:55:39.986Z,20.07
2023-04-18T22:58:08.976Z,20.00
2023-04-18T23:00:37.156Z,19.89
2023-04-18T23:03:05.827Z,20.12
2023-04-18T23:05:34.588Z,19.91
2023-04-18T23:08:02.724Z,19.75
2023-04-18T23:10:30.509Z,19.89
2023-04-18T23:12:58.578Z,19.72
2023-04-18T23:15:27.164Z,19.52
2023-04-18T23:17:55.350Z,19.52
2023-04-18T23:20:24.463Z,19.45
2023-04-18T23:22:53.029Z,19.45
2023-04-18T23:25:20.761Z,19.52
2023-04-18T23:27:48.817Z,19.43
2023-04-18T23:30:16.610Z,19.42
2023-04-18T23:32:44.735Z,19.40
2023-04-18T23:35:12.554Z,19.34
2023-04-18T23:37:42.333Z,19.44
2023-04-18T23:40:10.094Z,19.30
2023-04-18T23:42:38.521Z,19.41
2023-04-18T23:45:06.698Z,19.37
2023-04-18T23:47:34.831Z,19.22
2023-04-18T23:50:02.651Z,19.33
2023-04-18T23:52:30.961Z,19.33
2023-04-18T23:55:01.793Z,19.48
2023-04-18T23:57:30.095Z,19.21
2023-04-18T23:59:57.804Z,19.31
